Time;durP1;ratioP1;P1;durP2;ratioP2;P2;SDS_P1;SDS_P2;PMS_P1;PMS_P2;Temp;Humidity;BMP_temperature;BMP_pressure;BME280_temperature;BME280_humidity;BME280_pressure;Samples;Min_cycle;Max_cycle;Signal;HPM_P1;HPM_P2
2022/09/26 00:01:30;;;;;;;4.33;3.83;;;11.10;99.90;11.10;99827.00;;;;4982562;28;92368;-59
2022/09/26 00:04:00;;;;;;;3.33;2.87;;;11.10;99.90;11.10;99811.00;;;;4981635;28;94087;-59
2022/09/26 00:06:26;;;;;;;5.33;4.27;;;11.10;99.90;11.10;99818.00;;;;4988318;28;93748;-59
2022/09/26 00:08:53;;;;;;;6.67;3.90;;;11.20;99.90;11.10;99807.00;;;;4986952;28;92752;-59
2022/09/26 00:11:26;;;;;;;5.00;3.60;;;11.20;99.90;11.20;99812.00;;;;4984911;28;109588;-59
2022/09/26 00:13:55;;;;;;;4.87;4.27;;;11.20;99.90;11.20;99810.00;;;;4981840;28;92395;-58
2022/09/26 00:16:21;;;;;;;4.10;3.73;;;11.20;99.90;11.30;99819.00;;;;4978547;28;92866;-59
2022/09/26 00:18:49;;;;;;;3.50;3.13;;;11.20;99.90;11.30;99811.00;;;;4979774;28;116313;-59
2022/09/26 00:21:16;;;;;;;4.30;3.90;;;11.30;99.90;11.40;99822.00;;;;4982182;28;91709;-59
2022/09/26 00:23:42;;;;;;;5.43;4.17;;;11.30;99.90;11.40;99820.00;;;;4967348;28;92571;-60
2022/09/26 00:26:10;;;;;;;4.80;3.63;;;11.40;99.90;11.40;99817.00;;;;4988284;28;93621;-59
2022/09/26 00:28:36;;;;;;;4.13;3.73;;;11.40;99.90;11.40;99807.00;;;;4984130;28;114273;-59
2022/09/26 00:31:13;;;;;;;4.40;4.00;;;11.40;99.90;11.50;99813.00;;;;4984822;28;92546;-58
2022/09/26 00:33:39;;;;;;;4.30;3.50;;;11.40;99.90;11.50;99813.00;;;;4980781;28;92588;-59
2022/09/26 00:36:05;;;;;;;6.20;3.83;;;11.50;99.90;11.50;99821.00;;;;4979585;28;122434;-59
2022/09/26 00:38:32;;;;;;;4.67;3.60;;;11.50;99.90;11.60;99813.00;;;;4978821;28;122772;-59
2022/09/26 00:40:57;;;;;;;4.60;4.03;;;11.60;99.90;11.60;99804.00;;;;4983801;28;92410;-58
2022/09/26 00:43:49;;;;;;;4.73;3.73;;;11.60;99.90;11.60;99818.00;;;;4982244;28;106069;-60
2022/09/26 00:46:40;;;;;;;6.83;4.47;;;11.60;99.90;11.70;99808.00;;;;4983459;28;114643;-59
2022/09/26 00:49:34;;;;;;;5.10;4.53;;;11.70;99.90;11.70;99809.00;;;;4983468;28;98878;-59
2022/09/26 00:52:07;;;;;;;4.27;3.87;;;11.70;99.90;11.80;99800.00;;;;4980493;28;92635;-57
2022/09/26 00:54:35;;;;;;;4.43;3.83;;;11.70;99.90;11.80;99800.00;;;;4978631;28;103008;-59
2022/09/26 00:57:10;;;;;;;6.93;5.23;;;11.70;99.90;11.80;99801.00;;;;4979057;28;94041;-58
2022/09/26 00:59:43;;;;;;;4.00;3.63;;;11.80;99.90;11.80;99788.00;;;;4962939;28;93464;-60
2022/09/26 01:02:09;;;;;;;5.13;3.93;;;11.80;99.90;11.80;99790.00;;;;4968750;28;104266;-58
2022/09/26 01:04:39;;;;;;;5.00;3.77;;;11.80;99.90;11.90;99789.00;;;;4965858;28;109574;-59
2022/09/26 01:07:11;;;;;;;9.67;5.57;;;11.80;99.90;11.90;99787.00;;;;4968533;28;95156;-59
2022/09/26 01:09:37;;;;;;;8.03;4.70;;;11.90;99.90;11.90;99786.00;;;;4968942;28;92937;-59
2022/09/26 01:12:04;;;;;;;5.00;4.50;;;11.90;99.90;12.00;99788.00;;;;4963849;28;91986;-59
2022/09/26 01:14:32;;;;;;;6.63;4.97;;;11.90;99.90;12.00;99782.00;;;;4967054;28;92900;-58
2022/09/26 01:16:57;;;;;;;7.87;4.87;;;11.70;99.90;12.00;99788.00;;;;4979693;28;121231;-58
2022/09/26 01:19:54;;;;;;;5.87;4.23;;;12.00;99.90;12.00;99775.00;;;;4967240;28;122565;-59
2022/09/26 01:23:12;;;;;;;7.03;4.40;;;12.00;99.90;12.00;99781.00;;;;4984868;28;91956;-60
2022/09/26 01:26:07;;;;;;;6.20;4.23;;;12.00;99.90;12.00;99777.00;;;;4985952;28;92884;-60
2022/09/26 01:29:22;;;;;;;8.07;4.77;;;12.10;99.90;12.10;99783.00;;;;4984101;28;102938;-59
2022/09/26 01:35:18;;;;;;;6.17;3.57;;;12.10;99.90;12.10;99777.00;;;;4980701;28;92790;-59
2022/09/26 01:38:21;;;;;;;6.33;4.00;;;12.20;99.90;12.20;99768.00;;;;4984581;28;92911;-59
2022/09/26 01:41:04;;;;;;;4.23;3.83;;;12.20;99.90;12.20;99771.00;;;;4988252;28;91974;-59
2022/09/26 01:43:46;;;;;;;4.40;3.87;;;12.20;99.90;12.20;99765.00;;;;4967917;28;92970;-59
2022/09/26 01:46:50;;;;;;;8.53;5.13;;;12.20;99.90;12.20;99769.00;;;;4967396;28;105910;-58
2022/09/26 01:49:45;;;;;;;5.10;3.23;;;12.20;99.90;12.20;99765.00;;;;4970417;28;99569;-57
2022/09/26 01:52:19;;;;;;;6.83;4.50;;;12.30;99.90;12.30;99772.00;;;;4964606;28;92800;-56
2022/09/26 01:54:52;;;;;;;4.10;3.57;;;12.30;99.90;12.30;99775.00;;;;4983460;28;92529;-58
2022/09/26 01:57:33;;;;;;;4.33;3.30;;;12.30;99.90;12.40;99782.00;;;;4984021;28;92857;-58
2022/09/26 02:00:05;;;;;;;4.77;3.60;;;12.40;99.90;12.40;99770.00;;;;4971549;28;100529;-56
2022/09/26 02:02:38;;;;;;;3.47;2.77;;;12.40;99.90;12.40;99784.00;;;;4987119;28;106355;-58
2022/09/26 02:05:27;;;;;;;3.33;2.40;;;12.40;99.90;12.50;99765.00;;;;4970659;28;116625;-56
2022/09/26 02:08:23;;;;;;;4.83;2.60;;;12.40;99.90;12.50;99769.00;;;;4970588;28;91770;-59
2022/09/26 02:11:01;;;;;;;2.13;1.93;;;12.40;99.90;12.50;99765.00;;;;4971941;28;92158;-56
2022/09/26 02:13:35;;;;;;;2.27;2.03;;;12.50;99.90;12.50;99758.00;;;;4980445;28;93813;-57
2022/09/26 02:16:17;;;;;;;2.60;2.13;;;12.50;99.90;12.50;99757.00;;;;4966750;28;102054;-57
2022/09/26 02:18:56;;;;;;;2.00;1.80;;;12.50;99.90;12.50;99746.00;;;;4983938;28;104512;-58
2022/09/26 02:21:23;;;;;;;2.17;1.77;;;12.50;99.90;12.60;99748.00;;;;4989047;28;92589;-58
2022/09/26 02:23:51;;;;;;;4.73;2.17;;;12.50;99.90;12.60;99752.00;;;;4984437;28;93082;-58
2022/09/26 02:26:18;;;;;;;2.13;1.93;;;12.60;99.90;12.60;99744.00;;;;4967202;28;100157;-57
2022/09/26 02:28:44;;;;;;;2.40;2.20;;;12.60;99.90;12.60;99743.00;;;;4986176;28;92396;-58
2022/09/26 02:31:19;;;;;;;5.10;2.13;;;12.60;99.90;12.60;99740.00;;;;4971788;28;93252;-58
2022/09/26 02:33:46;;;;;;;2.23;1.53;;;12.60;99.90;12.60;99733.00;;;;4969215;28;92860;-56
2022/09/26 02:36:12;;;;;;;2.37;1.83;;;12.60;99.90;12.60;99731.00;;;;4968290;28;112196;-58
2022/09/26 02:38:37;;;;;;;3.87;2.50;;;12.60;99.90;12.60;99732.00;;;;4960850;28;92495;-58
2022/09/26 02:41:34;;;;;;;3.00;2.60;;;12.60;99.90;12.60;99743.00;;;;4988446;28;93318;-58
2022/09/26 02:44:39;;;;;;;3.17;1.73;;;12.60;99.90;12.60;99741.00;;;;4981667;28;93294;-58
2022/09/26 02:47:27;;;;;;;2.33;2.13;;;12.60;99.90;12.60;99745.00;;;;4964116;28;93491;-58
2022/09/26 02:50:20;;;;;;;3.53;2.57;;;12.60;99.90;12.60;99732.00;;;;4969678;28;104487;-58
2022/09/26 02:53:10;;;;;;;3.50;2.63;;;12.60;99.90;12.50;99742.00;;;;4987266;28;92587;-58
2022/09/26 02:56:03;;;;;;;4.10;2.03;;;12.60;99.90;12.50;99741.00;;;;4985014;28;93657;-58
2022/09/26 02:58:46;;;;;;;1.87;1.73;;;12.50;99.90;12.50;99741.00;;;;4984465;28;93095;-56
2022/09/26 03:01:28;;;;;;;5.37;1.77;;;12.50;99.90;12.50;99732.00;;;;4966509;28;91978;-58
2022/09/26 03:04:37;;;;;;;1.70;1.53;;;12.50;99.90;12.40;99738.00;;;;4984201;28;93162;-58
2022/09/26 03:07:10;;;;;;;1.77;1.33;;;12.50;99.90;12.40;99727.00;;;;4908213;28;116967;-58
2022/09/26 03:09:37;;;;;;;3.63;1.33;;;12.50;99.90;12.40;99727.00;;;;4985265;28;113928;-57
2022/09/26 03:12:06;;;;;;;1.67;1.57;;;12.50;99.90;12.40;99733.00;;;;4968482;28;92572;-59
2022/09/26 03:14:34;;;;;;;3.73;1.23;;;12.40;99.90;12.30;99731.00;;;;4978442;28;92328;-57
2022/09/26 03:17:02;;;;;;;2.73;1.23;;;12.40;99.90;12.20;99740.00;;;;4954730;28;93758;-60
2022/09/26 03:19:46;;;;;;;1.70;1.30;;;12.30;99.90;12.10;99743.00;;;;4966308;28;123108;-60
2022/09/26 03:22:14;;;;;;;2.27;1.60;;;12.20;99.90;11.90;99743.00;;;;4967227;28;92797;-61
2022/09/26 03:24:41;;;;;;;1.83;1.43;;;12.00;99.90;11.80;99740.00;;;;4966085;28;92662;-60
2022/09/26 03:27:10;;;;;;;1.27;0.90;;;11.90;99.90;11.70;99735.00;;;;4978235;28;112944;-60
2022/09/26 03:29:37;;;;;;;1.97;1.37;;;11.80;99.90;11.60;99737.00;;;;4976302;28;92143;-60
2022/09/26 03:32:04;;;;;;;1.20;0.90;;;11.60;99.90;11.50;99728.00;;;;4982175;28;92485;-60
2022/09/26 03:34:30;;;;;;;0.93;0.93;;;11.60;99.90;11.40;99724.00;;;;4987435;28;93276;-61
2022/09/26 03:36:56;;;;;;;3.20;1.40;;;11.40;99.90;11.30;99728.00;;;;4983132;28;122614;-61
2022/09/26 03:39:21;;;;;;;2.07;1.00;;;11.40;99.90;11.30;99737.00;;;;4983970;28;110947;-60
2022/09/26 03:41:47;;;;;;;1.20;1.10;;;11.30;99.90;11.20;99727.00;;;;4979619;28;109144;-60
2022/09/26 03:44:14;;;;;;;1.30;1.20;;;11.30;99.90;11.10;99728.00;;;;4980181;28;107796;-59
2022/09/26 03:46:41;;;;;;;0.57;0.50;;;11.20;99.90;11.10;99726.00;;;;4981880;28;93949;-60
2022/09/26 03:49:09;;;;;;;0.93;0.63;;;11.10;99.90;11.10;99715.00;;;;4980583;28;92348;-60
2022/09/26 03:51:35;;;;;;;1.27;1.13;;;11.10;99.90;11.00;99725.00;;;;4977143;28;101150;-60
2022/09/26 03:54:01;;;;;;;1.27;0.77;;;11.10;99.90;11.00;99720.00;;;;4977234;28;92352;-60
2022/09/26 03:56:27;;;;;;;0.90;0.87;;;11.00;99.90;11.00;99720.00;;;;4972235;28;92418;-60
2022/09/26 03:58:53;;;;;;;1.50;1.10;;;11.00;99.90;10.90;99713.00;;;;4979302;28;122619;-61
2022/09/26 04:01:21;;;;;;;1.03;0.40;;;11.00;99.90;10.90;99711.00;;;;4986846;28;108888;-60
2022/09/26 04:03:48;;;;;;;2.53;0.90;;;10.90;99.90;10.90;99717.00;;;;4984589;28;101921;-58
2022/09/26 04:06:18;;;;;;;2.27;1.00;;;10.90;99.90;10.90;99710.00;;;;4981509;28;93342;-60
2022/09/26 04:08:46;;;;;;;2.27;1.20;;;10.90;99.90;10.90;99716.00;;;;4976643;28;93363;-60
2022/09/26 04:11:16;;;;;;;1.77;1.33;;;10.90;99.90;10.90;99706.00;;;;4976787;28;92446;-61
2022/09/26 04:13:42;;;;;;;0.70;0.70;;;10.90;99.90;10.80;99704.00;;;;4974820;28;92184;-61
2022/09/26 04:16:09;;;;;;;1.33;1.07;;;10.90;99.90;10.80;99703.00;;;;4971437;28;92766;-61
2022/09/26 04:18:35;;;;;;;1.13;0.97;;;10.80;99.90;10.80;99701.00;;;;4984192;28;92586;-62
2022/09/26 04:21:08;;;;;;;1.90;1.17;;;10.80;99.90;10.80;99696.00;;;;4986969;28;92454;-62
2022/09/26 04:23:37;;;;;;;3.60;1.13;;;10.80;99.90;10.80;99707.00;;;;4981815;28;101477;-62
2022/09/26 04:26:11;;;;;;;1.70;1.30;;;10.80;99.90;10.70;99703.00;;;;4981094;28;93662;-63
2022/09/26 04:28:38;;;;;;;1.70;0.90;;;10.70;99.90;10.70;99694.00;;;;4969971;28;92422;-63
2022/09/26 04:31:05;;;;;;;2.00;1.37;;;10.70;99.90;10.70;99693.00;;;;4981784;28;92562;-63
2022/09/26 04:33:32;;;;;;;1.30;1.10;;;10.70;99.90;10.70;99697.00;;;;4984500;28;93654;-63
2022/09/26 04:36:03;;;;;;;1.83;0.93;;;10.70;99.90;10.60;99695.00;;;;4986295;28;93960;-63
2022/09/26 04:38:32;;;;;;;1.10;1.00;;;10.70;99.90;10.60;99694.00;;;;4980716;28;116108;-62
2022/09/26 04:41:10;;;;;;;1.90;1.03;;;10.60;99.90;10.60;99696.00;;;;4975816;28;91575;-62
2022/09/26 04:43:36;;;;;;;1.60;1.20;;;10.60;99.90;10.60;99683.00;;;;4973826;28;97061;-62
2022/09/26 04:46:17;;;;;;;1.00;0.80;;;10.60;99.90;10.60;99681.00;;;;4976870;28;93284;-62
2022/09/26 04:48:43;;;;;;;2.40;1.00;;;10.60;99.90;10.60;99679.00;;;;4979409;28;93628;-62
2022/09/26 04:51:12;;;;;;;0.77;0.77;;;10.60;99.90;10.60;99672.00;;;;4978213;28;109480;-63
2022/09/26 04:53:39;;;;;;;1.63;1.07;;;10.60;99.90;10.60;99674.00;;;;4980113;28;92525;-62
2022/09/26 04:56:06;;;;;;;2.37;1.37;;;10.60;99.90;10.50;99669.00;;;;4984783;28;92477;-61
2022/09/26 04:58:32;;;;;;;1.27;0.93;;;10.60;99.90;10.50;99662.00;;;;4966175;28;93213;-61
2022/09/26 05:01:03;;;;;;;0.87;0.80;;;10.60;99.90;10.50;99656.00;;;;4977204;28;106487;-61
2022/09/26 05:03:29;;;;;;;2.27;1.40;;;10.50;99.90;10.50;99669.00;;;;4976656;28;93055;-62
2022/09/26 05:05:55;;;;;;;2.30;1.20;;;10.50;99.90;10.50;99673.00;;;;4980345;28;92940;-62
2022/09/26 05:08:22;;;;;;;1.53;1.03;;;10.50;99.90;10.50;99680.00;;;;4981954;28;92370;-62
2022/09/26 05:10:56;;;;;;;1.47;1.30;;;10.50;99.90;10.40;99689.00;;;;4986310;28;92899;-62
2022/09/26 05:13:23;;;;;;;4.80;1.53;;;10.50;99.90;10.50;99681.00;;;;4982713;28;93392;-62
2022/09/26 05:15:52;;;;;;;1.77;1.07;;;10.50;99.90;10.50;99687.00;;;;4986841;28;92399;-62
2022/09/26 05:18:18;;;;;;;3.10;1.57;;;10.50;99.90;10.40;99674.00;;;;4973929;28;92492;-62
2022/09/26 05:20:47;;;;;;;1.53;1.13;;;10.50;99.90;10.40;99679.00;;;;4981100;28;95067;-62
2022/09/26 05:26:18;;;;;;;1.47;1.37;;;10.40;99.90;10.40;99670.00;;;;4979795;28;107590;-63
2022/09/26 05:26:22;;;;;;;1.70;1.13;;;10.40;99.90;10.40;99683.00;;;;4982292;28;93489;-62
2022/09/26 05:28:54;;;;;;;2.10;1.43;;;10.40;99.90;10.40;99689.00;;;;4981532;28;93167;-63
2022/09/26 05:31:23;;;;;;;1.90;1.47;;;10.40;99.90;10.40;99690.00;;;;4987329;28;92023;-62
2022/09/26 05:33:50;;;;;;;1.30;1.20;;;10.40;99.90;10.40;99679.00;;;;4988786;28;91972;-62
2022/09/26 05:36:17;;;;;;;2.13;1.23;;;10.40;99.90;10.40;99693.00;;;;4989653;28;93748;-62
2022/09/26 05:38:44;;;;;;;3.67;1.43;;;10.40;99.90;10.40;99677.00;;;;4982864;28;93321;-63
2022/09/26 05:41:11;;;;;;;3.13;1.50;;;10.40;99.90;10.40;99676.00;;;;4977112;28;92989;-62
2022/09/26 05:43:37;;;;;;;1.97;1.00;;;10.40;99.90;10.40;99682.00;;;;4963384;28;92632;-62
2022/09/26 05:46:07;;;;;;;1.80;1.40;;;10.40;99.90;10.40;99685.00;;;;4980057;28;122492;-62
2022/09/26 05:48:34;;;;;;;1.33;0.77;;;10.40;99.90;10.40;99679.00;;;;4984487;28;92389;-62
2022/09/26 05:51:14;;;;;;;3.90;1.57;;;10.40;99.90;10.40;99688.00;;;;4986833;28;92499;-62
2022/09/26 05:53:44;;;;;;;2.80;1.20;;;10.40;99.90;10.40;99686.00;;;;4989492;28;92372;-62
2022/09/26 05:56:11;;;;;;;0.87;0.83;;;10.40;99.90;10.40;99687.00;;;;4974754;28;92775;-62
2022/09/26 05:58:39;;;;;;;1.60;1.00;;;10.40;99.90;10.40;99683.00;;;;4974068;28;102215;-62
2022/09/26 06:01:17;;;;;;;1.50;1.03;;;10.40;99.90;10.40;99684.00;;;;4977214;28;92751;-62
2022/09/26 06:03:45;;;;;;;3.30;1.77;;;10.50;99.90;10.50;99677.00;;;;4982144;28;93503;-62
2022/09/26 06:06:17;;;;;;;1.37;1.20;;;10.50;99.90;10.50;99674.00;;;;4981889;28;110091;-62
2022/09/26 06:08:43;;;;;;;2.93;1.73;;;10.50;99.90;10.50;99674.00;;;;4984514;28;93353;-62
2022/09/26 06:11:15;;;;;;;1.60;1.50;;;10.50;99.90;10.50;99679.00;;;;4984990;28;99555;-62
2022/09/26 06:13:45;;;;;;;1.70;1.07;;;10.50;99.90;10.50;99678.00;;;;4970971;28;92587;-62
2022/09/26 06:16:19;;;;;;;1.23;0.87;;;10.50;99.90;10.50;99684.00;;;;4986915;28;93858;-62
2022/09/26 06:18:47;;;;;;;1.23;1.03;;;10.50;99.90;10.60;99687.00;;;;4979713;28;93616;-62
2022/09/26 06:21:16;;;;;;;1.70;1.47;;;10.50;99.90;10.60;99676.00;;;;4982191;28;91746;-62
2022/09/26 06:23:42;;;;;;;1.83;1.30;;;10.60;99.90;10.60;99676.00;;;;4983056;28;92452;-62
2022/09/26 06:26:13;;;;;;;2.70;1.27;;;10.60;99.90;10.60;99682.00;;;;4982395;28;93862;-62
2022/09/26 06:28:39;;;;;;;1.20;0.80;;;10.60;99.90;10.60;99685.00;;;;4964299;28;93650;-62
2022/09/26 06:31:17;;;;;;;1.53;1.03;;;10.60;99.90;10.60;99691.00;;;;4986155;28;109521;-62
2022/09/26 06:33:43;;;;;;;1.93;1.43;;;10.60;99.90;10.60;99693.00;;;;4990346;28;92681;-62
2022/09/26 06:36:11;;;;;;;1.60;1.10;;;10.60;99.90;10.70;99686.00;;;;4987233;28;93547;-62
2022/09/26 06:38:37;;;;;;;1.47;1.33;;;10.70;99.90;10.70;99690.00;;;;4981251;28;93311;-62
2022/09/26 06:41:03;;;;;;;1.60;1.00;;;10.70;99.90;10.70;99680.00;;;;4978570;28;109440;-62
2022/09/26 06:43:30;;;;;;;2.10;1.10;;;10.70;99.90;10.80;99689.00;;;;4964393;28;92354;-62
2022/09/26 06:45:56;;;;;;;1.63;1.20;;;10.80;99.90;10.80;99682.00;;;;4983084;28;93257;-61
2022/09/26 06:48:23;;;;;;;4.10;1.43;;;10.80;99.90;10.80;99683.00;;;;4983710;28;109626;-62
2022/09/26 06:50:54;;;;;;;1.27;1.03;;;10.80;99.90;10.80;99683.00;;;;4986370;28;92785;-62
2022/09/26 06:53:20;;;;;;;1.83;1.50;;;10.80;99.90;10.80;99674.00;;;;4988468;28;96672;-62
2022/09/26 06:55:46;;;;;;;2.57;1.83;;;10.80;99.90;10.80;99677.00;;;;4966059;28;92533;-61
2022/09/26 06:58:11;;;;;;;2.57;1.53;;;10.90;99.90;10.90;99681.00;;;;4980459;28;115593;-62
2022/09/26 07:00:39;;;;;;;1.60;1.20;;;10.90;99.90;10.90;99667.00;;;;4977343;28;110524;-62
2022/09/26 07:03:05;;;;;;;1.87;1.57;;;10.90;99.90;10.90;99664.00;;;;4980141;28;92438;-62
2022/09/26 07:05:31;;;;;;;2.03;1.33;;;10.90;99.90;11.00;99665.00;;;;4981169;28;111093;-62
2022/09/26 07:07:57;;;;;;;2.33;1.03;;;11.00;99.90;11.00;99666.00;;;;4985461;28;93297;-62
2022/09/26 07:10:24;;;;;;;1.53;1.33;;;11.00;99.90;11.00;99674.00;;;;4985419;28;91215;-62
2022/09/26 07:12:50;;;;;;;3.00;1.77;;;11.00;99.90;11.10;99654.00;;;;4985124;28;92613;-62
2022/09/26 07:15:18;;;;;;;2.30;1.37;;;11.10;99.90;11.10;99664.00;;;;4974829;28;93620;-62
2022/09/26 07:17:47;;;;;;;1.13;0.97;;;11.10;99.90;11.10;99664.00;;;;4974626;28;112706;-62
2022/09/26 07:20:19;;;;;;;2.17;1.97;;;11.10;99.90;11.20;99656.00;;;;4980194;28;92502;-61
2022/09/26 07:22:45;;;;;;;1.97;1.37;;;11.20;99.90;11.40;99654.00;;;;4981096;28;92512;-62
2022/09/26 07:25:12;;;;;;;3.80;2.23;;;11.30;99.90;11.70;99650.00;;;;4980112;28;92788;-61
2022/09/26 07:27:39;;;;;;;4.13;2.47;;;11.20;99.90;12.00;99644.00;;;;4982601;28;93606;-62
2022/09/26 07:30:07;;;;;;;3.53;2.93;;;11.80;99.90;12.30;99647.00;;;;4983611;28;110958;-60
2022/09/26 07:32:35;;;;;;;5.47;2.93;;;12.10;99.90;12.70;99643.00;;;;4984896;28;92198;-61
2022/09/26 07:35:04;;;;;;;2.93;2.70;;;12.40;99.90;13.00;99648.00;;;;4985049;28;92860;-61
2022/09/26 07:37:30;;;;;;;6.67;2.87;;;12.80;99.90;13.30;99654.00;;;;4978332;28;92914;-60
2022/09/26 07:39:56;;;;;;;7.20;3.47;;;13.10;99.90;13.60;99657.00;;;;4978150;28;92496;-60
2022/09/26 07:42:22;;;;;;;2.80;2.40;;;13.40;99.90;13.90;99656.00;;;;4980402;28;97404;-60
2022/09/26 07:44:48;;;;;;;2.30;1.80;;;13.70;99.90;14.20;99656.00;;;;4980444;28;121650;-60
2022/09/26 07:50:10;;;;;;;5.27;1.73;;;14.30;99.90;14.80;99654.00;;;;4984955;28;92444;-60
2022/09/26 07:52:36;;;;;;;1.50;1.37;;;14.60;99.90;15.10;99655.00;;;;4987108;28;92687;-60
2022/09/26 07:55:02;;;;;;;1.63;1.23;;;14.90;99.90;15.30;99652.00;;;;4983903;28;93572;-61
2022/09/26 07:57:31;;;;;;;1.90;1.13;;;15.20;99.90;15.40;99644.00;;;;4979650;28;115285;-61
2022/09/26 07:59:58;;;;;;;3.33;1.23;;;15.30;99.90;15.60;99641.00;;;;4982885;28;92197;-60
2022/09/26 08:02:32;;;;;;;1.85;1.15;;;15.50;99.90;15.90;99647.00;;;;4980940;28;91978;-61
2022/09/26 08:04:59;;;;;;;0.70;0.70;;;15.80;99.90;16.10;99643.00;;;;4981503;28;94134;-61
2022/09/26 08:07:25;;;;;;;1.20;1.10;;;16.00;99.90;16.30;99648.00;;;;4986127;28;93871;-61
2022/09/26 08:09:54;;;;;;;0.70;0.70;;;16.20;99.90;16.50;99639.00;;;;4987242;28;109330;-60
2022/09/26 08:12:19;;;;;;;1.85;0.90;;;16.40;99.90;16.70;99647.00;;;;4987069;28;92854;-60
2022/09/26 08:14:48;;;;;;;1.02;0.93;;;16.60;99.90;16.80;99646.00;;;;4969407;28;106116;-59
2022/09/26 08:17:15;;;;;;;1.00;0.88;;;16.70;99.90;16.90;99646.00;;;;4980424;28;92507;-58
2022/09/26 08:19:41;;;;;;;2.78;1.10;;;16.80;99.90;17.00;99651.00;;;;4977931;28;92471;-61
2022/09/26 08:22:07;;;;;;;1.45;0.88;;;16.90;99.90;17.00;99640.00;;;;4982004;28;93102;-60
2022/09/26 08:24:32;;;;;;;0.90;0.60;;;17.00;99.90;17.10;99641.00;;;;4983815;28;93111;-60
2022/09/26 08:26:59;;;;;;;0.63;0.60;;;17.10;99.90;17.30;99639.00;;;;4985094;28;121204;-61
2022/09/26 08:29:25;;;;;;;3.55;1.33;;;17.20;99.90;17.50;99641.00;;;;4987630;28;92365;-60
2022/09/26 08:31:53;;;;;;;2.10;0.98;;;17.40;99.90;17.70;99650.00;;;;4984090;28;98360;-60
2022/09/26 08:34:20;;;;;;;3.10;1.67;;;17.60;99.90;17.80;99647.00;;;;4982941;28;93308;-60
2022/09/26 08:36:51;;;;;;;1.70;1.35;;;17.70;99.90;17.80;99633.00;;;;4981368;28;93138;-60
2022/09/26 08:39:17;;;;;;;2.05;1.63;;;17.70;99.90;17.80;99640.00;;;;4977838;28;92685;-59
2022/09/26 08:41:49;;;;;;;2.15;1.25;;;17.70;99.90;17.90;99635.00;;;;4980656;28;92614;-59
2022/09/26 08:44:32;;;;;;;2.83;1.60;;;17.80;99.90;18.20;99636.00;;;;4965709;28;93247;-58
2022/09/26 08:47:52;;;;;;;3.60;1.30;;;18.00;99.90;18.40;99636.00;;;;4983367;28;92512;-58
2022/09/26 08:50:40;;;;;;;3.67;2.10;;;18.30;99.90;18.50;99637.00;;;;4925955;28;91758;-59
2022/09/26 08:53:15;;;;;;;4.05;2.05;;;18.40;99.70;18.70;99638.00;;;;4918885;28;100754;-58
2022/09/26 08:55:45;;;;;;;2.03;1.55;;;18.50;99.30;18.80;99633.00;;;;4963464;28;93799;-60
2022/09/26 08:58:19;;;;;;;2.70;1.80;;;18.60;99.10;18.80;99642.00;;;;4960011;28;92911;-60
2022/09/26 09:00:50;;;;;;;2.08;1.55;;;18.60;98.60;18.50;99632.00;;;;4967389;28;92889;-58
2022/09/26 09:03:33;;;;;;;4.18;2.00;;;18.50;97.20;18.10;99640.00;;;;4965513;28;92408;-60
2022/09/26 09:06:07;;;;;;;3.30;1.85;;;18.20;96.80;17.80;99634.00;;;;4983698;28;93833;-59
2022/09/26 09:08:43;;;;;;;1.80;1.70;;;17.80;97.40;17.60;99630.00;;;;4964968;28;117329;-60
2022/09/26 09:11:50;;;;;;;4.47;2.13;;;17.70;98.40;17.80;99621.00;;;;4983415;28;92502;-59
2022/09/26 09:14:44;;;;;;;4.25;2.45;;;17.60;98.90;17.90;99625.00;;;;4967801;28;99134;-59
2022/09/26 09:17:36;;;;;;;3.28;2.63;;;17.80;99.00;18.10;99619.00;;;;4979636;28;102027;-59
2022/09/26 09:20:53;;;;;;;4.18;2.30;;;18.00;98.80;18.40;99623.00;;;;4979628;28;92928;-59
2022/09/26 09:23:58;;;;;;;4.60;2.50;;;18.20;98.30;18.80;99620.00;;;;4966767;28;92328;-59
2022/09/26 09:26:52;;;;;;;3.95;2.38;;;18.50;96.80;19.10;99621.00;;;;4986105;28;102462;-58
2022/09/26 09:30:01;;;;;;;3.08;2.00;;;18.80;95.90;19.20;99614.00;;;;4968476;28;117491;-59
2022/09/26 09:32:40;;;;;;;2.13;1.35;;;19.00;95.20;19.30;99608.00;;;;4967570;28;113816;-59
2022/09/26 09:35:13;;;;;;;4.93;1.75;;;19.10;95.30;19.40;99611.00;;;;4969407;28;92442;-58
2022/09/26 09:37:51;;;;;;;1.73;1.63;;;19.20;94.80;19.80;99604.00;;;;4978244;28;91968;-59
2022/09/26 09:40:28;;;;;;;2.60;1.70;;;19.50;94.20;20.20;99605.00;;;;4962677;28;116894;-59
2022/09/26 09:43:06;;;;;;;1.70;1.60;;;19.90;92.70;20.40;99605.00;;;;4970888;28;100067;-59
2022/09/26 09:45:50;;;;;;;2.47;1.63;;;20.10;90.90;20.50;99605.00;;;;5000866;28;100167;-57
2022/09/26 09:48:16;;;;;;;2.05;1.25;;;20.30;90.50;20.50;99603.00;;;;4983207;28;92547;-58
2022/09/26 09:50:41;;;;;;;2.65;1.55;;;20.30;86.90;20.20;99598.00;;;;4984136;28;93784;-58
2022/09/26 09:53:30;;;;;;;2.05;1.40;;;20.20;83.80;20.00;99599.00;;;;4983855;28;98930;-59
2022/09/26 09:56:20;;;;;;;1.60;1.30;;;20.00;81.70;19.90;99592.00;;;;4981220;28;94178;-59
2022/09/26 09:59:11;;;;;;;1.38;1.27;;;19.80;79.70;19.50;99596.00;;;;4969021;28;101421;-58
2022/09/26 10:01:41;;;;;;;1.77;1.23;;;19.60;79.10;19.40;99589.00;;;;4964606;28;115799;-58
2022/09/26 10:04:27;;;;;;;0.73;0.65;;;19.30;80.00;19.50;99589.00;;;;4966162;28;94520;-58
2022/09/26 10:06:54;;;;;;;1.83;0.98;;;19.30;79.00;19.60;99590.00;;;;4986716;28;92567;-58
2022/09/26 10:09:42;;;;;;;1.15;0.88;;;19.40;78.70;19.90;99580.00;;;;4985821;28;93044;-59
2022/09/26 10:12:18;;;;;;;1.48;1.08;;;19.60;78.20;20.10;99585.00;;;;4982968;28;93202;-59
2022/09/26 10:14:55;;;;;;;1.30;1.02;;;19.80;75.90;20.00;99571.00;;;;4982663;28;92556;-60
2022/09/26 10:17:22;;;;;;;1.38;0.80;;;19.90;73.40;19.60;99577.00;;;;4980167;28;92517;-57
2022/09/26 10:19:48;;;;;;;0.90;0.85;;;19.60;74.20;19.60;99571.00;;;;4982470;28;93556;-58
2022/09/26 10:22:24;;;;;;;1.73;0.80;;;19.50;74.50;19.80;99562.00;;;;4987918;28;93903;-60
2022/09/26 10:24:58;;;;;;;1.25;0.73;;;19.50;74.00;19.90;99556.00;;;;4971846;28;92643;-59
2022/09/26 10:27:34;;;;;;;0.70;0.63;;;19.70;72.20;20.00;99565.00;;;;4988717;28;92999;-59
2022/09/26 10:30:17;;;;;;;0.75;0.75;;;19.80;69.50;20.20;99572.00;;;;4984449;28;92032;-59
2022/09/26 10:32:47;;;;;;;1.17;1.02;;;20.00;70.50;20.50;99563.00;;;;4981715;28;121384;-59
2022/09/26 10:35:28;;;;;;;1.40;1.10;;;20.20;69.30;20.80;99553.00;;;;4969112;28;113410;-59
2022/09/26 10:38:06;;;;;;;1.85;0.60;;;20.50;68.80;21.20;99560.00;;;;4964981;28;91297;-60
2022/09/26 10:40:45;;;;;;;1.67;0.88;;;20.80;69.80;21.60;99547.00;;;;4984629;28;93530;-59
2022/09/26 10:43:30;;;;;;;0.75;0.75;;;21.20;66.10;21.90;99547.00;;;;4983871;28;93549;-59
2022/09/26 10:46:16;;;;;;;1.73;0.70;;;21.50;62.70;22.00;99534.00;;;;4985597;28;93436;-60
2022/09/26 10:48:53;;;;;;;0.88;0.63;;;21.70;59.20;22.10;99537.00;;;;4968709;28;102782;-59
2022/09/26 10:51:38;;;;;;;0.90;0.85;;;21.80;59.90;22.30;99541.00;;;;4983596;28;92556;-60
2022/09/26 10:54:22;;;;;;;1.05;0.50;;;22.00;59.10;22.50;99536.00;;;;4982152;28;93876;-59
2022/09/26 10:56:56;;;;;;;0.55;0.50;;;22.10;57.60;22.50;99532.00;;;;4983659;28;92600;-58
2022/09/26 10:59:26;;;;;;;0.77;0.60;;;22.20;55.30;22.50;99524.00;;;;4984787;28;93348;-60
2022/09/26 11:01:57;;;;;;;0.38;0.38;;;22.20;55.70;22.40;99525.00;;;;4968071;28;93029;-60
2022/09/26 11:07:23;;;;;;;0.20;0.20;;;22.20;55.90;22.50;99529.00;;;;4967335;28;92815;-61
2022/09/26 11:09:51;;;;;;;1.08;0.80;;;22.20;54.90;22.60;99532.00;;;;4982137;28;92460;-60
2022/09/26 11:12:29;;;;;;;1.27;0.65;;;22.30;53.90;22.80;99533.00;;;;4980579;28;102686;-60
2022/09/26 11:14:59;;;;;;;0.93;0.65;;;22.40;54.20;22.60;99525.00;;;;4960382;28;95627;-59
2022/09/26 11:17:48;;;;;;;0.40;0.40;;;22.40;51.20;22.10;99525.00;;;;4976491;28;93597;-61
2022/09/26 11:20:31;;;;;;;0.47;0.43;;;22.10;51.50;21.70;99529.00;;;;4983472;28;92614;-60
2022/09/26 11:23:21;;;;;;;0.70;0.45;;;21.70;51.70;21.10;99522.00;;;;4968801;28;92555;-59
2022/09/26 11:26:32;;;;;;;0.30;0.30;;;21.10;51.60;20.60;99520.00;;;;4985481;28;94211;-59
2022/09/26 11:29:22;;;;;;;0.88;0.85;;;20.60;53.40;20.50;99512.00;;;;4970310;28;93326;-59
2022/09/26 11:31:48;;;;;;;0.50;0.40;;;20.40;54.40;20.70;99518.00;;;;4971334;28;92095;-59